Svitzer Marysville — VHDP — position and weather

sailwx.info

Track history (hours):
 
Tides and Currents Weather Stations Pressure Air Temp Water Temp Dewpoint Dewpoint Depression Visibility Wind Speed Wind Dir Waves Ship Positions

Svitzer Marysville

Last reported at 2014-May-09 00:28 UTC. Time now 2014-Oct-22 09:46 UTC.
Position S 37°49' E 144°55'.
Warning: this ship's position is months out of date.

Length 22 m; draft 5.8 m.

Type: Tug. MMSI: 503546100.

Date/timePositionNaut miles runAvg speedWind from/ knotsBaromVisibWave heightAir tempDewpointWater temp
2014-May-09 00:28S 37°49' E 144°55'0 0.1
2014-May-08 23:28S 37°49' E 144°55'0 0.0
2014-May-08 22:28S 37°49' E 144°55'0 0.0
2014-May-08 21:28S 37°49' E 144°55'0 0.0
2014-May-08 20:22S 37°49' E 144°55'0 0.0
2014-May-08 19:28S 37°49' E 144°55'1 1.1
2014-May-08 18:33S 37°50' E 144°54'3 3.0
2014-May-08 17:33S 37°52' E 144°56'0 0.5
2014-May-08 16:34S 37°52' E 144°55'3 2.8
2014-May-08 15:34S 37°49' E 144°55'1 0.7
2014-May-08 14:33S 37°49' E 144°54'2 2.0
2014-May-08 13:33S 37°51' E 144°56'1 1.1
2014-May-08 12:33S 37°51' E 144°54'2 2.1
2014-May-08 11:33S 37°49' E 144°55'2 2.4
2014-May-08 10:33S 37°51' E 144°55'2 1.8
2014-May-08 09:33S 37°49' E 144°55'0 0.0
2014-May-08 08:33S 37°49' E 144°55'0 0.0
2014-May-08 06:13S 37°49' E 144°55'0 0.0
2014-May-08 05:33S 37°49' E 144°55'0 0.0
2014-May-08 04:33S 37°49' E 144°55'0 0.0
2014-May-08 03:33S 37°49' E 144°55'2 0.3
2014-May-07 20:33S 37°51' E 144°55'2 0.3
2014-May-07 13:23S 37°49' E 144°55'0 0.0
2014-May-07 12:33S 37°49' E 144°55'3 2.5
2014-May-07 11:30S 37°52' E 144°55'1 1.4
2014-May-07 10:33S 37°53' E 144°56'2 1.8
2014-May-07 09:33S 37°51' E 144°55'2 1.6
2014-May-07 08:33S 37°50' E 144°54'1 1.2
2014-May-07 07:31S 37°49' E 144°55'2 0.8
2014-May-07 05:33S 37°51' E 144°54'2 1.5
2014-May-07 04:32S 37°49' E 144°55'0 0.2
2014-May-07 03:33S 37°49' E 144°55'0 0.3
2014-May-07 02:33S 37°49' E 144°55'0 0.4
2014-May-07 01:30S 37°49' E 144°55'0 0.0
2014-May-07 00:31S 37°49' E 144°55'0 0.0
2014-May-06 23:30S 37°49' E 144°55'1 0.6
2014-May-06 22:33S 37°49' E 144°54'2 1.9
2014-May-06 21:33S 37°51' E 144°55'2 1.9
2014-May-06 20:33S 37°49' E 144°55'0 0.0
2014-May-06 19:33S 37°49' E 144°55'0 0.0
2014-May-06 18:33S 37°49' E 144°55'1 0.9
2014-May-06 17:34S 37°50' E 144°54'2 1.6
2014-May-06 16:34S 37°51' E 144°55'2 1.8
2014-May-06 15:33S 37°49' E 144°55'0 0.0
2014-May-06 14:33S 37°49' E 144°55'0 0.0
2014-May-06 13:33S 37°49' E 144°55'0 0.0
2014-May-06 12:33S 37°49' E 144°55'1 0.8
2014-May-06 11:33S 37°49' E 144°54'2 1.7
2014-May-06 10:33S 37°51' E 144°55'1 1.1
2014-May-06 09:33S 37°52' E 144°55'2 1.5
2014-May-06 08:33S 37°51' E 144°54'1 1.1
2014-May-06 07:33S 37°51' E 144°56'1 1.3
2014-May-06 06:33S 37°52' E 144°55'1 1.1
2014-May-06 05:33S 37°51' E 144°54'1 1.1
2014-May-06 04:33S 37°50' E 144°54'1 1.1
2014-May-06 03:32S 37°49' E 144°55'0 0.0
2014-May-06 02:32S 37°49' E 144°55'0 0.0
2014-May-06 01:32S 37°49' E 144°55'0 0.0
2014-May-06 00:32S 37°49' E 144°55'0 0.3
2014-May-05 23:33S 37°49' E 144°55'0 0.3
2014-May-05 22:32S 37°49' E 144°55'0 0.4
2014-May-05 21:26S 37°49' E 144°55'2 2.4
2014-May-05 20:33S 37°51' E 144°55'0 0.4
2014-May-05 19:30S 37°51' E 144°54'0 0.0
2014-May-05 18:30S 37°51' E 144°54'0 0.0
2014-May-05 17:30S 37°51' E 144°54'0 0.0
2014-May-05 16:30S 37°51' E 144°54'0 0.0
2014-May-05 15:30S 37°51' E 144°54'0 0.0
2014-May-05 14:30S 37°51' E 144°54'2 1.7
2014-May-05 13:32S 37°52' E 144°55'1 0.9
2014-May-05 12:33S 37°51' E 144°55'1 0.9
2014-May-05 11:33S 37°51' E 144°54'2 1.6
2014-May-05 10:28S 37°49' E 144°55'0 0.0
2014-May-05 09:28S 37°49' E 144°55'0 0.0
2014-May-05 08:28S 37°49' E 144°55'0 0.0
2014-May-05 07:28S 37°49' E 144°55'0 0.0
2014-May-05 06:28S 37°49' E 144°55'0 0.0
2014-May-05 05:28S 37°49' E 144°55'0 0.0
2014-May-05 04:28S 37°49' E 144°55'2 2.1
2014-May-05 03:33S 37°51' E 144°55'1 1.5
2014-May-05 02:33S 37°50' E 144°54'1 1.0
2014-May-05 01:31S 37°49' E 144°55'0 0.0
2014-May-05 00:31S 37°49' E 144°55'0 0.0
2014-May-04 23:31S 37°49' E 144°55'0 0.0
2014-May-04 22:31S 37°49' E 144°55'0 0.0
2014-May-04 21:31S 37°49' E 144°55'0 0.0
2014-May-04 20:31S 37°49' E 144°55'0 0.0
2014-May-04 19:25S 37°49' E 144°55'1 0.7
2014-May-04 18:28S 37°49' E 144°55'2 2.7
2014-May-04 17:33S 37°51' E 144°54'2 1.8
2014-May-04 16:29S 37°49' E 144°55'0 0.0
2014-May-04 15:23S 37°49' E 144°55'0 0.0
2014-May-04 14:29S 37°49' E 144°55'0 0.0
2014-May-04 13:29S 37°49' E 144°55'0 0.0
2014-May-04 12:29S 37°49' E 144°55'0 0.4
2014-May-04 11:33S 37°49' E 144°55'0 0.3
2014-May-04 10:33S 37°49' E 144°55'0 0.0
2014-May-04 09:30S 37°49' E 144°55'0 0.0
2014-May-04 08:30S 37°49' E 144°55'0 0.0
2014-May-04 07:30S 37°49' E 144°55'0 0.0
2014-May-04 06:30S 37°49' E 144°55'0 0.0
2014-May-04 05:30S 37°49' E 144°55'0 0.0
2014-May-04 04:29S 37°49' E 144°55'0 0.0
2014-May-04 03:30S 37°49' E 144°55'0 0.0
2014-May-04 02:29S 37°49' E 144°55'0 0.0
2014-May-04 01:29S 37°49' E 144°55'0 0.0
2014-May-04 00:29S 37°49' E 144°55'0 0.0
2014-May-03 23:30S 37°49' E 144°55'0 0.0
2014-May-03 22:29S 37°49' E 144°55'0 0.0
2014-May-03 21:29S 37°49' E 144°55'0 0.0
2014-May-03 20:24S 37°49' E 144°55'0 0.0
2014-May-03 19:29S 37°49' E 144°55'0 0.0
2014-May-03 18:30S 37°49' E 144°55'0 0.0
2014-May-03 17:29S 37°49' E 144°55'0 0.0
2014-May-03 16:30S 37°49' E 144°55'0 0.0
2014-May-03 15:29S 37°49' E 144°55'0 0.0
2014-May-03 14:29S 37°49' E 144°55'0 0.0
2014-May-03 13:29S 37°49' E 144°55'0 0.0
2014-May-03 12:29S 37°49' E 144°55'0 0.0
2014-May-03 11:29S 37°49' E 144°55'0 0.0
2014-May-03 10:29S 37°49' E 144°55'0 0.0
2014-May-03 09:29S 37°49' E 144°55'0 0.0
2014-May-03 08:29S 37°49' E 144°55'0 0.0
2014-May-03 07:23S 37°49' E 144°55'0 0.0
2014-May-03 06:23S 37°49' E 144°55'0 0.0
2014-May-03 05:29S 37°49' E 144°55'0 0.0
2014-May-03 04:29S 37°49' E 144°55'0 0.0
2014-May-03 03:30S 37°49' E 144°55'3 2.6
2014-May-03 02:31S 37°52' E 144°55'2 2.3
2014-May-03 01:33S 37°54' E 144°56'5 4.4
2014-May-03 00:28S 37°49' E 144°55'0 0.0
2014-May-02 23:28S 37°49' E 144°55'0 0.0
2014-May-02 22:23S 37°49' E 144°55'0 0.0
2014-May-02 21:29S 37°49' E 144°55'0 0.0
2014-May-02 20:28S 37°49' E 144°55'0 0.0
2014-May-02 19:28S 37°49' E 144°55'0 0.0
2014-May-02 18:28S 37°49' E 144°55'0 0.0
2014-May-02 17:28S 37°49' E 144°55'0 0.0
2014-May-02 16:28S 37°49' E 144°55'0 0.0
2014-May-02 15:28S 37°49' E 144°55'0 0.0
2014-May-02 14:28S 37°49' E 144°55'0 0.0
2014-May-02 13:28S 37°49' E 144°55'0 0.3
2014-May-02 12:33S 37°49' E 144°55'2 2.1
2014-May-02 11:34S 37°51' E 144°54'2 2.0
2014-May-02 10:34S 37°49' E 144°55'0 0.0
2014-May-02 09:34S 37°49' E 144°55'0 0.0
2014-May-02 08:33S 37°49' E 144°55'0 0.0
2014-May-02 07:33S 37°49' E 144°55'0 0.0
2014-May-02 06:34S 37°49' E 144°55'0 0.0
2014-May-02 05:33S 37°49' E 144°55'0 0.0
2014-May-02 04:33S 37°49' E 144°55'0 0.0
2014-May-02 03:33S 37°49' E 144°55'1 0.6
2014-May-02 02:33S 37°49' E 144°55'1 0.5
2014-May-02 01:28S 37°49' E 144°55'0 0.0
2014-May-02 00:28S 37°49' E 144°55'0 0.0
2014-May-01 23:28S 37°49' E 144°55'0 0.0
2014-May-01 22:22S 37°49' E 144°55'0 0.0
2014-May-01 21:28S 37°49' E 144°55'0 0.0
2014-May-01 20:28S 37°49' E 144°55'0 0.0
2014-May-01 19:28S 37°49' E 144°55'0 0.0
2014-May-01 18:28S 37°49' E 144°55'0 0.0
2014-May-01 17:28S 37°49' E 144°55'0 0.0
2014-May-01 16:28S 37°49' E 144°55'0 0.0
2014-May-01 15:28S 37°49' E 144°55'0 0.0
2014-May-01 14:28S 37°49' E 144°55'0 0.4
2014-May-01 13:33S 37°49' E 144°55'1 0.8
2014-May-01 12:33S 37°50' E 144°54'1 1.1
2014-May-01 11:28S 37°49' E 144°55'0 0.4
2014-May-01 10:33S 37°49' E 144°55'0 0.3
2014-May-01 09:28S 37°49' E 144°55'0 0.0
2014-May-01 08:28S 37°49' E 144°55'0 0.0
2014-May-01 07:28S 37°49' E 144°55'0 0.0
2014-May-01 06:28S 37°49' E 144°55'0 0.0
2014-May-01 05:28S 37°49' E 144°55'0 0.0
2014-May-01 04:28S 37°49' E 144°55'0 0.0
2014-May-01 03:28S 37°49' E 144°55'0 0.0
2014-May-01 02:28S 37°49' E 144°55'0 0.0
2014-May-01 01:28S 37°49' E 144°55'0 0.0
2014-May-01 00:28S 37°49' E 144°55'0 0.0
2014-Apr-30 23:28S 37°49' E 144°55'0 0.0
2014-Apr-30 22:28S 37°49' E 144°55'0 0.0
2014-Apr-30 21:28S 37°49' E 144°55'0 0.0
2014-Apr-30 20:28S 37°49' E 144°55'0 0.0
2014-Apr-30 19:28S 37°49' E 144°55'0 0.0
2014-Apr-30 18:28S 37°49' E 144°55'0 0.0
2014-Apr-30 17:28S 37°49' E 144°55'0 0.0
2014-Apr-30 16:28S 37°49' E 144°55'0 0.0
2014-Apr-30 15:22S 37°49' E 144°55'0 0.0
2014-Apr-30 14:28S 37°49' E 144°55'0 0.0
2014-Apr-30 13:28S 37°49' E 144°55'1 1.0
2014-Apr-30 12:33S 37°50' E 144°54'1 1.4
2014-Apr-30 11:33S 37°51' E 144°54'2 1.9
2014-Apr-30 10:33S 37°49' E 144°55'0 0.1
2014-Apr-30 09:33S 37°49' E 144°55'0 0.1
2014-Apr-30 08:33S 37°49' E 144°55'0 0.0
2014-Apr-30 07:33S 37°49' E 144°55'0 0.0
2014-Apr-30 06:33S 37°49' E 144°55'0 0.4
2014-Apr-30 05:33S 37°49' E 144°55'0 0.4
2014-Apr-30 04:33S 37°49' E 144°55'0 0.0
2014-Apr-30 03:33S 37°49' E 144°55'0 0.0
2014-Apr-30 02:33S 37°49' E 144°55'0 0.0
2014-Apr-30 01:33S 37°49' E 144°55'0 0.0
2014-Apr-30 00:33S 37°49' E 144°55'0 0.0
2014-Apr-29 23:33S 37°49' E 144°55'1 1.0
2014-Apr-29 22:33S 37°50' E 144°54'1 1.3
2014-Apr-29 21:33S 37°51' E 144°55'0 0.3
2014-Apr-29 20:33S 37°51' E 144°54'2 1.9
2014-Apr-29 19:33S 37°49' E 144°55'0 0.0
2014-Apr-29 18:33S 37°49' E 144°55'0 0.0
2014-Apr-29 17:33S 37°49' E 144°55'0 0.0
2014-Apr-29 16:33S 37°49' E 144°55'0 0.0
2014-Apr-29 15:33S 37°49' E 144°55'0 0.0
2014-Apr-29 14:33S 37°49' E 144°55'0 0.0
2014-Apr-29 13:33S 37°49' E 144°55'1 0.7
2014-Apr-29 12:33S 37°49' E 144°55'1 0.6
2014-Apr-29 11:33S 37°49' E 144°55'2 1.7
2014-Apr-29 10:33S 37°51' E 144°54'0 0.4
2014-Apr-29 09:33S 37°51' E 144°54'0 0.2
2014-Apr-29 08:33S 37°51' E 144°55'1 0.9
2014-Apr-29 07:33S 37°52' E 144°55'2 2.3
2014-Apr-29 06:33S 37°49' E 144°55'0 0.0
2014-Apr-29 05:33S 37°49' E 144°55'1 0.8
2014-Apr-29 04:33S 37°49' E 144°54'2 1.7
2014-Apr-29 03:33S 37°51' E 144°55'2 1.9
2014-Apr-29 02:33S 37°49' E 144°55'0 0.0
2014-Apr-29 01:33S 37°49' E 144°55'0 0.0
2014-Apr-29 00:33S 37°49' E 144°55'  
Track history (hours):
 
Tides and Currents Weather Stations Pressure Air Temp Water Temp Dewpoint Dewpoint Depression Visibility Wind Speed Wind Dir Waves Ship Positions

Svitzer Marysville

Last reported at 2014-May-09 00:28 UTC. Time now 2014-Oct-22 09:46 UTC.
Position S 37°49' E 144°55'.
Warning: this ship's position is months out of date.

Length 22 m; draft 5.8 m.

Type: Tug. MMSI: 503546100.

Date/timePositionNaut miles runAvg speedWind from/ knotsBaromVisibWave heightAir tempDewpointWater temp
2014-May-09 00:28S 37°49' E 144°55'0 0.1
2014-May-08 23:28S 37°49' E 144°55'0 0.0
2014-May-08 22:28S 37°49' E 144°55'0 0.0
2014-May-08 21:28S 37°49' E 144°55'0 0.0
2014-May-08 20:22S 37°49' E 144°55'0 0.0
2014-May-08 19:28S 37°49' E 144°55'1 1.1
2014-May-08 18:33S 37°50' E 144°54'3 3.0
2014-May-08 17:33S 37°52' E 144°56'0 0.5
2014-May-08 16:34S 37°52' E 144°55'3 2.8
2014-May-08 15:34S 37°49' E 144°55'1 0.7
2014-May-08 14:33S 37°49' E 144°54'2 2.0
2014-May-08 13:33S 37°51' E 144°56'1 1.1
2014-May-08 12:33S 37°51' E 144°54'2 2.1
2014-May-08 11:33S 37°49' E 144°55'2 2.4
2014-May-08 10:33S 37°51' E 144°55'2 1.8
2014-May-08 09:33S 37°49' E 144°55'0 0.0
2014-May-08 08:33S 37°49' E 144°55'0 0.0
2014-May-08 06:13S 37°49' E 144°55'0 0.0
2014-May-08 05:33S 37°49' E 144°55'0 0.0
2014-May-08 04:33S 37°49' E 144°55'0 0.0
2014-May-08 03:33S 37°49' E 144°55'2 0.3
2014-May-07 20:33S 37°51' E 144°55'2 0.3
2014-May-07 13:23S 37°49' E 144°55'0 0.0
2014-May-07 12:33S 37°49' E 144°55'3 2.5
2014-May-07 11:30S 37°52' E 144°55'1 1.4
2014-May-07 10:33S 37°53' E 144°56'2 1.8
2014-May-07 09:33S 37°51' E 144°55'2 1.6
2014-May-07 08:33S 37°50' E 144°54'1 1.2
2014-May-07 07:31S 37°49' E 144°55'2 0.8
2014-May-07 05:33S 37°51' E 144°54'2 1.5
2014-May-07 04:32S 37°49' E 144°55'0 0.2
2014-May-07 03:33S 37°49' E 144°55'0 0.3
2014-May-07 02:33S 37°49' E 144°55'0 0.4
2014-May-07 01:30S 37°49' E 144°55'0 0.0
2014-May-07 00:31S 37°49' E 144°55'0 0.0
2014-May-06 23:30S 37°49' E 144°55'1 0.6
2014-May-06 22:33S 37°49' E 144°54'2 1.9
2014-May-06 21:33S 37°51' E 144°55'2 1.9
2014-May-06 20:33S 37°49' E 144°55'0 0.0
2014-May-06 19:33S 37°49' E 144°55'0 0.0
2014-May-06 18:33S 37°49' E 144°55'1 0.9
2014-May-06 17:34S 37°50' E 144°54'2 1.6
2014-May-06 16:34S 37°51' E 144°55'2 1.8
2014-May-06 15:33S 37°49' E 144°55'0 0.0
2014-May-06 14:33S 37°49' E 144°55'0 0.0
2014-May-06 13:33S 37°49' E 144°55'0 0.0
2014-May-06 12:33S 37°49' E 144°55'1 0.8
2014-May-06 11:33S 37°49' E 144°54'2 1.7
2014-May-06 10:33S 37°51' E 144°55'1 1.1
2014-May-06 09:33S 37°52' E 144°55'2 1.5
2014-May-06 08:33S 37°51' E 144°54'1 1.1
2014-May-06 07:33S 37°51' E 144°56'1 1.3
2014-May-06 06:33S 37°52' E 144°55'1 1.1
2014-May-06 05:33S 37°51' E 144°54'1 1.1
2014-May-06 04:33S 37°50' E 144°54'1 1.1
2014-May-06 03:32S 37°49' E 144°55'0 0.0
2014-May-06 02:32S 37°49' E 144°55'0 0.0
2014-May-06 01:32S 37°49' E 144°55'0 0.0
2014-May-06 00:32S 37°49' E 144°55'0 0.3
2014-May-05 23:33S 37°49' E 144°55'0 0.3
2014-May-05 22:32S 37°49' E 144°55'0 0.4
2014-May-05 21:26S 37°49' E 144°55'2 2.4
2014-May-05 20:33S 37°51' E 144°55'0 0.4
2014-May-05 19:30S 37°51' E 144°54'0 0.0
2014-May-05 18:30S 37°51' E 144°54'0 0.0
2014-May-05 17:30S 37°51' E 144°54'0 0.0
2014-May-05 16:30S 37°51' E 144°54'0 0.0
2014-May-05 15:30S 37°51' E 144°54'0 0.0
2014-May-05 14:30S 37°51' E 144°54'2 1.7
2014-May-05 13:32S 37°52' E 144°55'1 0.9
2014-May-05 12:33S 37°51' E 144°55'1 0.9
2014-May-05 11:33S 37°51' E 144°54'2 1.6
2014-May-05 10:28S 37°49' E 144°55'0 0.0
2014-May-05 09:28S 37°49' E 144°55'0 0.0
2014-May-05 08:28S 37°49' E 144°55'0 0.0
2014-May-05 07:28S 37°49' E 144°55'0 0.0
2014-May-05 06:28S 37°49' E 144°55'0 0.0
2014-May-05 05:28S 37°49' E 144°55'0 0.0
2014-May-05 04:28S 37°49' E 144°55'2 2.1
2014-May-05 03:33S 37°51' E 144°55'1 1.5
2014-May-05 02:33S 37°50' E 144°54'1 1.0
2014-May-05 01:31S 37°49' E 144°55'0 0.0
2014-May-05 00:31S 37°49' E 144°55'0 0.0
2014-May-04 23:31S 37°49' E 144°55'0 0.0
2014-May-04 22:31S 37°49' E 144°55'0 0.0
2014-May-04 21:31S 37°49' E 144°55'0 0.0
2014-May-04 20:31S 37°49' E 144°55'0 0.0
2014-May-04 19:25S 37°49' E 144°55'1 0.7
2014-May-04 18:28S 37°49' E 144°55'2 2.7
2014-May-04 17:33S 37°51' E 144°54'2 1.8
2014-May-04 16:29S 37°49' E 144°55'0 0.0
2014-May-04 15:23S 37°49' E 144°55'0 0.0
2014-May-04 14:29S 37°49' E 144°55'0 0.0
2014-May-04 13:29S 37°49' E 144°55'0 0.0
2014-May-04 12:29S 37°49' E 144°55'0 0.4
2014-May-04 11:33S 37°49' E 144°55'0 0.3
2014-May-04 10:33S 37°49' E 144°55'0 0.0
2014-May-04 09:30S 37°49' E 144°55'0 0.0
2014-May-04 08:30S 37°49' E 144°55'0 0.0
2014-May-04 07:30S 37°49' E 144°55'0 0.0
2014-May-04 06:30S 37°49' E 144°55'0 0.0
2014-May-04 05:30S 37°49' E 144°55'0 0.0
2014-May-04 04:29S 37°49' E 144°55'0 0.0
2014-May-04 03:30S 37°49' E 144°55'0 0.0
2014-May-04 02:29S 37°49' E 144°55'0 0.0
2014-May-04 01:29S 37°49' E 144°55'0 0.0
2014-May-04 00:29S 37°49' E 144°55'0 0.0
2014-May-03 23:30S 37°49' E 144°55'0 0.0
2014-May-03 22:29S 37°49' E 144°55'0 0.0
2014-May-03 21:29S 37°49' E 144°55'0 0.0
2014-May-03 20:24S 37°49' E 144°55'0 0.0
2014-May-03 19:29S 37°49' E 144°55'0 0.0
2014-May-03 18:30S 37°49' E 144°55'0 0.0
2014-May-03 17:29S 37°49' E 144°55'0 0.0
2014-May-03 16:30S 37°49' E 144°55'0 0.0
2014-May-03 15:29S 37°49' E 144°55'0 0.0
2014-May-03 14:29S 37°49' E 144°55'0 0.0
2014-May-03 13:29S 37°49' E 144°55'0 0.0
2014-May-03 12:29S 37°49' E 144°55'0 0.0
2014-May-03 11:29S 37°49' E 144°55'0 0.0
2014-May-03 10:29S 37°49' E 144°55'0 0.0
2014-May-03 09:29S 37°49' E 144°55'0 0.0
2014-May-03 08:29S 37°49' E 144°55'0 0.0
2014-May-03 07:23S 37°49' E 144°55'0 0.0
2014-May-03 06:23S 37°49' E 144°55'0 0.0
2014-May-03 05:29S 37°49' E 144°55'0 0.0
2014-May-03 04:29S 37°49' E 144°55'0 0.0
2014-May-03 03:30S 37°49' E 144°55'3 2.6
2014-May-03 02:31S 37°52' E 144°55'2 2.3
2014-May-03 01:33S 37°54' E 144°56'5 4.4
2014-May-03 00:28S 37°49' E 144°55'0 0.0
2014-May-02 23:28S 37°49' E 144°55'0 0.0
2014-May-02 22:23S 37°49' E 144°55'0 0.0
2014-May-02 21:29S 37°49' E 144°55'0 0.0
2014-May-02 20:28S 37°49' E 144°55'0 0.0
2014-May-02 19:28S 37°49' E 144°55'0 0.0
2014-May-02 18:28S 37°49' E 144°55'0 0.0
2014-May-02 17:28S 37°49' E 144°55'0 0.0
2014-May-02 16:28S 37°49' E 144°55'0 0.0
2014-May-02 15:28S 37°49' E 144°55'0 0.0
2014-May-02 14:28S 37°49' E 144°55'0 0.0
2014-May-02 13:28S 37°49' E 144°55'0 0.3
2014-May-02 12:33S 37°49' E 144°55'2 2.1
2014-May-02 11:34S 37°51' E 144°54'2 2.0
2014-May-02 10:34S 37°49' E 144°55'0 0.0
2014-May-02 09:34S 37°49' E 144°55'0 0.0
2014-May-02 08:33S 37°49' E 144°55'0 0.0
2014-May-02 07:33S 37°49' E 144°55'0 0.0
2014-May-02 06:34S 37°49' E 144°55'0 0.0
2014-May-02 05:33S 37°49' E 144°55'0 0.0
2014-May-02 04:33S 37°49' E 144°55'0 0.0
2014-May-02 03:33S 37°49' E 144°55'1 0.6
2014-May-02 02:33S 37°49' E 144°55'1 0.5
2014-May-02 01:28S 37°49' E 144°55'0 0.0
2014-May-02 00:28S 37°49' E 144°55'0 0.0
2014-May-01 23:28S 37°49' E 144°55'0 0.0
2014-May-01 22:22S 37°49' E 144°55'0 0.0
2014-May-01 21:28S 37°49' E 144°55'0 0.0
2014-May-01 20:28S 37°49' E 144°55'0 0.0
2014-May-01 19:28S 37°49' E 144°55'0 0.0
2014-May-01 18:28S 37°49' E 144°55'0 0.0
2014-May-01 17:28S 37°49' E 144°55'0 0.0
2014-May-01 16:28S 37°49' E 144°55'0 0.0
2014-May-01 15:28S 37°49' E 144°55'0 0.0
2014-May-01 14:28S 37°49' E 144°55'0 0.4
2014-May-01 13:33S 37°49' E 144°55'1 0.8
2014-May-01 12:33S 37°50' E 144°54'1 1.1
2014-May-01 11:28S 37°49' E 144°55'0 0.4
2014-May-01 10:33S 37°49' E 144°55'0 0.3
2014-May-01 09:28S 37°49' E 144°55'0 0.0
2014-May-01 08:28S 37°49' E 144°55'0 0.0
2014-May-01 07:28S 37°49' E 144°55'0 0.0
2014-May-01 06:28S 37°49' E 144°55'0 0.0
2014-May-01 05:28S 37°49' E 144°55'0 0.0
2014-May-01 04:28S 37°49' E 144°55'0 0.0
2014-May-01 03:28S 37°49' E 144°55'0 0.0
2014-May-01 02:28S 37°49' E 144°55'0 0.0
2014-May-01 01:28S 37°49' E 144°55'0 0.0
2014-May-01 00:28S 37°49' E 144°55'0 0.0
2014-Apr-30 23:28S 37°49' E 144°55'0 0.0
2014-Apr-30 22:28S 37°49' E 144°55'0 0.0
2014-Apr-30 21:28S 37°49' E 144°55'0 0.0
2014-Apr-30 20:28S 37°49' E 144°55'0 0.0
2014-Apr-30 19:28S 37°49' E 144°55'0 0.0
2014-Apr-30 18:28S 37°49' E 144°55'0 0.0
2014-Apr-30 17:28S 37°49' E 144°55'0 0.0
2014-Apr-30 16:28S 37°49' E 144°55'0 0.0
2014-Apr-30 15:22S 37°49' E 144°55'0 0.0
2014-Apr-30 14:28S 37°49' E 144°55'0 0.0
2014-Apr-30 13:28S 37°49' E 144°55'1 1.0
2014-Apr-30 12:33S 37°50' E 144°54'1 1.4
2014-Apr-30 11:33S 37°51' E 144°54'2 1.9
2014-Apr-30 10:33S 37°49' E 144°55'0 0.1
2014-Apr-30 09:33S 37°49' E 144°55'0 0.1
2014-Apr-30 08:33S 37°49' E 144°55'0 0.0
2014-Apr-30 07:33S 37°49' E 144°55'0 0.0
2014-Apr-30 06:33S 37°49' E 144°55'0 0.4
2014-Apr-30 05:33S 37°49' E 144°55'0 0.4
2014-Apr-30 04:33S 37°49' E 144°55'0 0.0
2014-Apr-30 03:33S 37°49' E 144°55'0 0.0
2014-Apr-30 02:33S 37°49' E 144°55'0 0.0
2014-Apr-30 01:33S 37°49' E 144°55'0 0.0
2014-Apr-30 00:33S 37°49' E 144°55'0 0.0
2014-Apr-29 23:33S 37°49' E 144°55'1 1.0
2014-Apr-29 22:33S 37°50' E 144°54'1 1.3
2014-Apr-29 21:33S 37°51' E 144°55'0 0.3
2014-Apr-29 20:33S 37°51' E 144°54'2 1.9
2014-Apr-29 19:33S 37°49' E 144°55'0 0.0
2014-Apr-29 18:33S 37°49' E 144°55'0 0.0
2014-Apr-29 17:33S 37°49' E 144°55'0 0.0
2014-Apr-29 16:33S 37°49' E 144°55'0 0.0
2014-Apr-29 15:33S 37°49' E 144°55'0 0.0
2014-Apr-29 14:33S 37°49' E 144°55'0 0.0
2014-Apr-29 13:33S 37°49' E 144°55'1 0.7
2014-Apr-29 12:33S 37°49' E 144°55'1 0.6
2014-Apr-29 11:33S 37°49' E 144°55'2 1.7
2014-Apr-29 10:33S 37°51' E 144°54'0 0.4
2014-Apr-29 09:33S 37°51' E 144°54'0 0.2
2014-Apr-29 08:33S 37°51' E 144°55'1 0.9
2014-Apr-29 07:33S 37°52' E 144°55'2 2.3
2014-Apr-29 06:33S 37°49' E 144°55'0 0.0
2014-Apr-29 05:33S 37°49' E 144°55'1 0.8
2014-Apr-29 04:33S 37°49' E 144°54'2 1.7
2014-Apr-29 03:33S 37°51' E 144°55'2 1.9
2014-Apr-29 02:33S 37°49' E 144°55'0 0.0
2014-Apr-29 01:33S 37°49' E 144°55'0 0.0
2014-Apr-29 00:33S 37°49' E 144°55'  

Dump ship's entire track history